Time;durP1;ratioP1;P1;durP2;ratioP2;P2;SDS_P1;SDS_P2;PMS_P1;PMS_P2;Temp;Humidity;BMP_temperature;BMP_pressure;BME280_temperature;BME280_humidity;BME280_pressure;Samples;Min_cycle;Max_cycle;Signal;HPM_P1;HPM_P2
2023/05/30 00:01:54;;;;;;;7.30;2.10;;;;;;;18.08;41.79;100678.16;10317074;28;20057;-71
2023/05/30 00:06:56;;;;;;;6.18;1.75;;;;;;;17.76;42.59;100684.19;10318336;28;20467;-72
2023/05/30 00:11:57;;;;;;;6.68;1.88;;;;;;;17.67;42.13;100681.47;10312230;28;20633;-71
2023/05/30 00:16:59;;;;;;;5.38;2.25;;;;;;;17.83;42.03;100685.25;10297315;28;20516;-69
2023/05/30 00:22:01;;;;;;;4.30;2.08;;;;;;;17.61;42.29;100679.41;10301679;28;20076;-72
2023/05/30 00:27:02;;;;;;;4.53;1.95;;;;;;;17.66;42.19;100679.75;10313361;28;20092;-70
2023/05/30 00:32:04;;;;;;;7.07;2.30;;;;;;;17.59;42.35;100686.78;10301234;28;20124;-72
2023/05/30 00:37:08;;;;;;;6.95;2.20;;;;;;;17.55;42.43;100680.06;10312662;28;20061;-68
2023/05/30 00:42:10;;;;;;;3.85;2.10;;;;;;;17.55;42.39;100685.44;10309782;28;20050;-72
2023/05/30 00:47:13;;;;;;;3.55;1.48;;;;;;;17.56;42.37;100673.66;10296711;28;20153;-71
2023/05/30 00:52:15;;;;;;;4.10;1.70;;;;;;;17.50;42.46;100658.13;10311768;28;20060;-71
2023/05/30 00:57:17;;;;;;;5.13;2.08;;;;;;;17.54;42.57;100667.59;10301614;28;20288;-68
2023/05/30 01:02:18;;;;;;;6.78;2.03;;;;;;;17.61;42.62;100670.47;10314428;28;20053;-71
2023/05/30 01:07:20;;;;;;;6.05;2.65;;;;;;;17.54;42.75;100689.13;10298516;28;20058;-69
2023/05/30 01:12:52;;;;;;;5.68;1.65;;;;;;;17.48;43.14;100671.75;10329823;28;20050;-72
2023/05/30 01:18:23;;;;;;;7.95;2.58;;;;;;;17.23;43.78;100673.41;10324486;28;20120;-70
2023/05/30 01:23:46;;;;;;;5.70;2.03;;;;;;;17.16;44.13;100679.59;10302544;28;20053;-68
2023/05/30 01:28:51;;;;;;;6.55;2.30;;;;;;;17.18;44.01;100675.75;10309650;28;20058;-71
2023/05/30 01:33:53;;;;;;;5.50;2.10;;;;;;;17.04;44.54;100665.53;10293906;28;20049;-71
2023/05/30 01:38:54;;;;;;;5.32;2.28;;;;;;;17.07;44.59;100684.06;10313348;28;20637;-71
2023/05/30 01:44:05;;;;;;;10.30;2.30;;;;;;;16.87;45.01;100662.72;10309652;28;20211;-70
2023/05/30 01:49:31;;;;;;;6.43;3.17;;;;;;;16.95;45.18;100676.25;10317352;28;20076;-69
2023/05/30 01:54:35;;;;;;;5.90;2.05;;;;;;;16.92;45.32;100681.94;10311231;28;20545;-70
2023/05/30 01:59:39;;;;;;;9.13;2.15;;;;;;;16.72;45.76;100688.41;10311513;28;20046;-70
2023/05/30 02:04:40;;;;;;;5.93;2.10;;;;;;;16.68;46.34;100687.03;10313983;28;20065;-72
2023/05/30 02:09:42;;;;;;;6.18;2.55;;;;;;;16.74;45.79;100683.75;10306502;28;20289;-72
2023/05/30 02:14:44;;;;;;;7.22;2.85;;;;;;;16.77;46.16;100691.50;10316391;28;20085;-70
2023/05/30 02:19:45;;;;;;;7.47;2.65;;;;;;;16.69;46.47;100694.94;10305460;28;20064;-69
2023/05/30 02:24:47;;;;;;;9.63;3.30;;;;;;;16.61;46.77;100693.00;10318572;28;20501;-70
2023/05/30 02:29:49;;;;;;;7.63;2.60;;;;;;;16.53;47.13;100697.44;10317994;28;20479;-70
2023/05/30 02:34:50;;;;;;;7.20;2.17;;;;;;;16.50;47.55;100698.63;10308523;28;20062;-71
2023/05/30 02:39:51;;;;;;;6.55;3.08;;;;;;;16.42;47.62;100690.47;10324817;28;20049;-73
2023/05/30 02:44:53;;;;;;;7.30;2.40;;;;;;;16.43;47.65;100692.16;10319370;28;20052;-71
2023/05/30 02:49:55;;;;;;;6.63;2.70;;;;;;;16.38;47.69;100684.56;10304821;28;20213;-71
2023/05/30 02:54:56;;;;;;;6.65;2.67;;;;;;;16.06;48.41;100685.00;10306123;28;20065;-70
2023/05/30 02:59:58;;;;;;;7.07;3.00;;;;;;;16.02;48.62;100697.06;10324080;28;20057;-70
2023/05/30 03:04:59;;;;;;;8.93;3.08;;;;;;;15.95;49.02;100698.63;10319783;28;20050;-70
2023/05/30 03:10:01;;;;;;;7.57;2.50;;;;;;;15.83;49.09;100685.38;10315870;28;20049;-70
2023/05/30 03:15:05;;;;;;;8.00;2.33;;;;;;;15.73;49.29;100696.13;10313274;28;20057;-70
2023/05/30 03:20:07;;;;;;;8.35;2.53;;;;;;;15.88;49.22;100703.72;10303254;28;20500;-70
2023/05/30 03:25:08;;;;;;;7.75;2.85;;;;;;;15.89;49.32;100711.63;10315652;28;20073;-71
2023/05/30 03:30:10;;;;;;;9.93;3.30;;;;;;;15.88;49.29;100709.09;10325378;28;22396;-72
2023/05/30 03:35:12;;;;;;;7.05;2.47;;;;;;;15.72;49.62;100720.44;10326594;28;20073;-74
2023/05/30 03:40:13;;;;;;;9.18;2.55;;;;;;;15.85;49.74;100730.88;10321385;28;20069;-70
2023/05/30 03:45:15;;;;;;;8.05;2.60;;;;;;;15.77;49.81;100734.25;10319152;28;20068;-70
2023/05/30 03:50:16;;;;;;;10.48;2.92;;;;;;;15.67;49.69;100731.63;10317178;28;20232;-70
2023/05/30 03:55:17;;;;;;;7.15;2.20;;;;;;;15.71;49.56;100740.22;10315162;28;20046;-71
2023/05/30 04:00:20;;;;;;;10.52;3.30;;;;;;;15.74;49.96;100745.28;10321234;28;20069;-69
2023/05/30 04:05:21;;;;;;;7.22;3.38;;;;;;;15.58;51.14;100736.97;10324173;28;20056;-72
2023/05/30 04:10:23;;;;;;;7.50;2.60;;;;;;;15.60;51.18;100748.41;10305871;28;20115;-71
2023/05/30 04:15:24;;;;;;;8.25;3.03;;;;;;;15.51;50.99;100740.25;10306446;28;20050;-70
2023/05/30 04:20:25;;;;;;;6.90;2.70;;;;;;;15.29;50.64;100733.34;10305018;28;20416;-70
2023/05/30 04:25:28;;;;;;;6.40;2.08;;;;;;;15.34;50.92;100738.28;10317362;28;20057;-70
2023/05/30 04:30:29;;;;;;;8.20;3.15;;;;;;;15.27;52.15;100772.88;10313368;28;20232;-70
2023/05/30 04:35:32;;;;;;;7.97;2.95;;;;;;;15.32;51.65;100767.94;10304477;28;20061;-70
2023/05/30 04:40:34;;;;;;;9.38;3.38;;;;;;;15.25;51.16;100765.97;10315972;28;20133;-71
2023/05/30 04:45:36;;;;;;;8.50;3.08;;;;;;;15.23;51.40;100770.63;10312918;28;20311;-70
2023/05/30 04:50:38;;;;;;;10.02;2.70;;;;;;;15.38;51.40;100766.53;10318324;28;20050;-71
2023/05/30 04:55:41;;;;;;;12.32;3.58;;;;;;;15.33;50.95;100772.31;10321823;28;20062;-69
2023/05/30 05:00:43;;;;;;;10.82;3.25;;;;;;;15.40;51.18;100780.63;10290810;28;20132;-70
2023/05/30 05:05:45;;;;;;;9.70;2.85;;;;;;;15.35;51.29;100772.16;10299622;28;20054;-68
2023/05/30 05:10:46;;;;;;;7.70;2.88;;;;;;;15.43;51.38;100774.97;10312928;28;20057;-69
2023/05/30 05:15:49;;;;;;;10.20;2.65;;;;;;;15.61;50.61;100793.88;10316954;28;20412;-70
2023/05/30 05:20:51;;;;;;;7.35;2.55;;;;;;;15.47;50.87;100786.28;10304231;28;20224;-70
2023/05/30 05:25:53;;;;;;;7.50;2.97;;;;;;;15.49;50.39;100789.66;10315664;28;20057;-72
2023/05/30 05:30:54;;;;;;;6.90;2.67;;;;;;;15.62;50.93;100792.91;10321424;28;20068;-70
2023/05/30 05:35:56;;;;;;;5.57;2.70;;;;;;;15.63;50.76;100799.13;10318387;28;20151;-70
2023/05/30 05:40:58;;;;;;;6.53;2.35;;;;;;;15.68;50.41;100797.69;10321274;28;20054;-68
2023/05/30 05:46:00;;;;;;;10.40;2.15;;;;;;;15.56;51.57;100805.03;10300570;28;20062;-70
2023/05/30 05:51:02;;;;;;;9.32;2.40;;;;;;;15.63;50.91;100801.81;10358097;28;20073;-70
2023/05/30 05:56:03;;;;;;;9.20;2.80;;;;;;;15.95;50.36;100808.72;10325430;28;20050;-69
2023/05/30 06:01:05;;;;;;;10.57;2.60;;;;;;;16.08;50.17;100818.13;10331059;28;20049;-70
2023/05/30 06:06:07;;;;;;;7.85;2.80;;;;;;;16.19;49.50;100814.41;10317813;28;20740;-70
2023/05/30 06:11:09;;;;;;;7.97;2.53;;;;;;;16.38;49.04;100812.66;10302434;28;20128;-69
2023/05/30 06:16:10;;;;;;;7.10;2.28;;;;;;;16.48;48.84;100813.44;10317182;28;20065;-72
2023/05/30 06:21:12;;;;;;;6.72;2.53;;;;;;;16.48;49.13;100812.63;10317471;28;20064;-69
2023/05/30 06:26:13;;;;;;;8.05;2.58;;;;;;;16.65;48.77;100816.34;10302388;28;20243;-67
2023/05/30 06:31:17;;;;;;;7.93;2.55;;;;;;;16.81;48.91;100813.84;10309193;28;20053;-68
2023/05/30 06:36:19;;;;;;;7.75;2.42;;;;;;;17.06;48.14;100822.22;10309244;28;20503;-69
2023/05/30 06:41:22;;;;;;;8.85;2.72;;;;;;;17.21;47.45;100812.63;10326664;28;20856;-69
2023/05/30 06:46:23;;;;;;;12.98;3.13;;;;;;;17.24;47.49;100820.38;10321606;28;20397;-68
2023/05/30 06:51:26;;;;;;;5.25;2.70;;;;;;;17.27;47.29;100817.41;10319949;28;20061;-69
2023/05/30 06:56:27;;;;;;;5.57;1.70;;;;;;;17.45;46.40;100830.00;10305240;28;20081;-68
2023/05/30 07:01:29;;;;;;;7.53;2.00;;;;;;;17.59;46.05;100825.91;10305363;28;20061;-71
2023/05/30 07:06:31;;;;;;;6.28;2.03;;;;;;;17.51;46.28;100826.69;10312394;28;20116;-71
2023/05/30 07:11:33;;;;;;;5.97;2.10;;;;;;;17.71;45.53;100838.13;10309360;28;20483;-68
2023/05/30 07:16:34;;;;;;;5.45;2.17;;;;;;;17.57;45.56;100836.84;10322620;28;20137;-70
2023/05/30 07:21:36;;;;;;;4.25;2.28;;;;;;;17.62;45.07;100833.69;10319563;28;20050;-69
2023/05/30 07:26:37;;;;;;;9.10;2.38;;;;;;;17.71;45.26;100842.69;10302785;28;20046;-69
2023/05/30 07:31:39;;;;;;;4.22;2.22;;;;;;;18.04;44.84;100827.63;10320236;28;20064;-69
2023/05/30 07:36:40;;;;;;;6.47;2.22;;;;;;;18.41;43.65;100837.28;10300372;28;20725;-69
2023/05/30 07:41:41;;;;;;;4.82;1.52;;;;;;;18.64;43.53;100828.63;10311416;28;20058;-69
2023/05/30 07:46:43;;;;;;;7.57;2.25;;;;;;;18.80;42.16;100817.06;10316651;28;20042;-70
2023/05/30 07:51:45;;;;;;;6.95;2.30;;;;;;;18.87;42.07;100808.19;10321562;28;20046;-69
2023/05/30 07:56:46;;;;;;;7.72;2.20;;;;;;;19.19;41.88;100816.50;10321263;28;20050;-70
2023/05/30 08:01:48;;;;;;;7.95;2.58;;;;;;;19.36;41.46;100831.69;10293440;28;20140;-69
2023/05/30 08:06:49;;;;;;;5.03;2.40;;;;;;;19.24;40.98;100822.25;10308028;28;20534;-71
2023/05/30 08:11:52;;;;;;;5.22;1.90;;;;;;;19.50;40.42;100821.25;10314188;28;20056;-69
2023/05/30 08:16:53;;;;;;;6.50;2.22;;;;;;;19.65;40.57;100822.28;10313354;28;20240;-70
2023/05/30 08:21:55;;;;;;;6.07;2.03;;;;;;;19.72;40.06;100828.66;10312544;28;20254;-69
2023/05/30 08:26:56;;;;;;;5.22;1.83;;;;;;;19.91;40.32;100815.88;10322837;28;20084;-69
2023/05/30 08:31:58;;;;;;;3.50;1.48;;;;;;;20.20;40.33;100825.28;10314822;28;20118;-68
2023/05/30 08:36:59;;;;;;;7.35;2.17;;;;;;;20.39;39.56;100822.16;10314895;28;20053;-69
2023/05/30 08:42:01;;;;;;;5.80;2.72;;;;;;;20.55;39.93;100829.41;10333559;28;20076;-69
2023/05/30 08:47:04;;;;;;;5.93;1.73;;;;;;;20.64;39.03;100812.09;10318067;28;20058;-70
2023/05/30 08:52:11;;;;;;;4.73;1.97;;;;;;;20.80;38.95;100813.91;10319230;28;20176;-70
2023/05/30 08:57:23;;;;;;;11.32;2.35;;;;;;;21.09;38.44;100809.69;10315695;28;21493;-69
2023/05/30 09:02:25;;;;;;;6.25;2.25;;;;;;;21.23;38.58;100801.81;10310199;28;20059;-70
2023/05/30 09:07:28;;;;;;;4.97;1.60;;;;;;;21.45;38.35;100802.81;10311440;28;20054;-69
2023/05/30 09:12:30;;;;;;;3.78;1.75;;;;;;;21.64;38.26;100801.53;10294549;28;20133;-69
2023/05/30 09:17:32;;;;;;;24.48;3.67;;;;;;;21.76;35.81;100788.38;10303535;28;20045;-71
2023/05/30 09:22:34;;;;;;;9.15;2.17;;;;;;;21.64;36.54;100788.81;10320427;28;20428;-70
2023/05/30 09:27:38;;;;;;;6.72;1.95;;;;;;;21.93;36.74;100799.88;10302685;28;20171;-69
2023/05/30 09:32:39;;;;;;;4.50;1.70;;;;;;;22.17;35.49;100785.22;10323507;28;21304;-70
2023/05/30 09:37:43;;;;;;;4.60;1.92;;;;;;;22.41;36.11;100792.25;10320908;28;20096;-68
2023/05/30 09:42:51;;;;;;;9.60;2.42;;;;;;;22.53;35.65;100788.06;10320372;28;20249;-69
2023/05/30 09:47:53;;;;;;;4.93;1.85;;;;;;;22.70;34.57;100790.53;10317046;28;20294;-71
2023/05/30 09:52:56;;;;;;;5.90;2.25;;;;;;;22.74;35.18;100790.00;10318742;28;20583;-72
2023/05/30 09:57:58;;;;;;;3.97;1.85;;;;;;;22.66;35.42;100783.81;10301802;28;20076;-68
2023/05/30 10:03:00;;;;;;;7.60;1.60;;;;;;;22.84;33.96;100776.09;10303537;28;20611;-69
2023/05/30 10:08:02;;;;;;;4.60;1.77;;;;;;;23.10;34.68;100761.16;10322199;28;20060;-69
2023/05/30 10:13:04;;;;;;;6.60;2.10;;;;;;;23.38;34.29;100765.81;10318641;28;20485;-69
2023/05/30 10:18:12;;;;;;;3.92;1.52;;;;;;;23.49;32.99;100778.84;10320377;28;20100;-69
2023/05/30 10:23:15;;;;;;;5.35;2.05;;;;;;;23.72;33.56;100767.75;10326897;28;20057;-72
2023/05/30 10:28:26;;;;;;;6.63;1.67;;;;;;;23.99;33.60;100766.09;10332392;28;20065;-71
2023/05/30 10:33:31;;;;;;;3.30;1.63;;;;;;;24.12;32.76;100767.19;10320166;28;20052;-69
2023/05/30 10:39:18;;;;;;;4.53;1.60;;;;;;;24.35;32.84;100762.31;10315566;28;20085;-70
2023/05/30 10:44:42;;;;;;;6.03;1.90;;;;;;;24.39;31.13;100767.34;10317563;28;20515;-72
2023/05/30 10:49:47;;;;;;;6.43;1.38;;;;;;;24.49;31.68;100751.50;10317217;28;20160;-71
2023/05/30 10:54:50;;;;;;;6.28;2.40;;;;;;;24.53;31.68;100736.44;10301385;28;20053;-71
2023/05/30 10:59:55;;;;;;;5.97;1.52;;;;;;;24.66;31.59;100731.03;10313448;28;20522;-71
2023/05/30 11:05:03;;;;;;;5.28;1.65;;;;;;;24.67;31.76;100727.28;10321994;28;20050;-70
2023/05/30 11:10:14;;;;;;;5.05;2.17;;;;;;;24.73;31.37;100716.63;10320782;28;20071;-68
2023/05/30 11:15:17;;;;;;;2.75;1.48;;;;;;;24.87;30.56;100712.88;10300966;28;20061;-71
2023/05/30 11:20:21;;;;;;;4.18;1.38;;;;;;;24.88;30.43;100706.41;10314360;28;20057;-70
2023/05/30 11:25:25;;;;;;;3.83;1.60;;;;;;;24.67;30.65;100702.78;10315544;28;20058;-70
2023/05/30 11:30:26;;;;;;;5.68;1.60;;;;;;;24.88;30.52;100700.97;10315934;28;20875;-71
2023/05/30 11:35:30;;;;;;;4.75;1.48;;;;;;;25.08;30.30;100700.13;10290860;28;20467;-70
2023/05/30 11:40:32;;;;;;;5.50;1.98;;;;;;;25.11;30.27;100697.81;10314719;28;20042;-70
2023/05/30 11:45:33;;;;;;;4.75;1.48;;;;;;;25.13;29.90;100686.72;10299153;28;20521;-70
2023/05/30 11:50:39;;;;;;;5.30;1.88;;;;;;;25.29;30.02;100697.19;10311431;28;20061;-69
2023/05/30 11:55:48;;;;;;;10.95;2.22;;;;;;;25.25;29.57;100685.03;10316425;28;20125;-69
2023/05/30 12:00:51;;;;;;;4.50;1.55;;;;;;;25.43;29.61;100687.16;10317364;28;20207;-69
2023/05/30 12:05:54;;;;;;;6.03;1.67;;;;;;;25.49;29.44;100694.50;10315727;28;20637;-69
2023/05/30 12:10:56;;;;;;;4.85;1.75;;;;;;;25.52;29.42;100690.50;10314328;28;20760;-69
2023/05/30 12:15:58;;;;;;;4.70;1.65;;;;;;;25.33;29.43;100697.66;10311544;28;20068;-69
2023/05/30 12:21:00;;;;;;;3.33;1.85;;;;;;;25.04;30.15;100692.38;10316119;28;20058;-70
2023/05/30 12:26:02;;;;;;;6.15;2.15;;;;;;;24.87;30.57;100669.31;10307213;28;20937;-67
2023/05/30 12:31:04;;;;;;;4.07;1.60;;;;;;;25.00;29.94;100672.06;10314209;28;20050;-68
2023/05/30 12:36:06;;;;;;;5.03;1.80;;;;;;;25.09;30.37;100669.97;10310776;28;21096;-69
2023/05/30 12:41:11;;;;;;;5.47;1.48;;;;;;;25.32;29.62;100669.56;10334865;28;20571;-69
2023/05/30 12:46:14;;;;;;;5.75;1.45;;;;;;;25.34;29.44;100672.94;10312221;28;20638;-70
2023/05/30 12:51:16;;;;;;;5.13;1.77;;;;;;;24.99;30.41;100675.81;10307095;28;20058;-69
2023/05/30 12:56:17;;;;;;;6.18;2.15;;;;;;;24.91;31.30;100672.50;10308211;28;20062;-69
2023/05/30 13:01:19;;;;;;;3.80;1.55;;;;;;;24.90;31.15;100662.63;10305826;28;20051;-66
2023/05/30 13:06:20;;;;;;;6.78;1.75;;;;;;;25.04;30.58;100675.19;10293530;28;20046;-71
2023/05/30 13:11:22;;;;;;;5.20;2.00;;;;;;;25.12;30.72;100660.56;10302704;28;20050;-68
2023/05/30 13:16:23;;;;;;;6.07;1.35;;;;;;;25.06;31.10;100656.78;10304371;28;20333;-71
2023/05/30 13:21:25;;;;;;;4.07;1.85;;;;;;;25.03;30.85;100660.75;10307500;28;21260;-69
2023/05/30 13:26:27;;;;;;;5.03;1.77;;;;;;;24.84;31.85;100656.13;10286422;28;20455;-68
2023/05/30 13:31:28;;;;;;;3.83;1.75;;;;;;;24.81;32.22;100659.28;10311831;28;21086;-69
2023/05/30 13:36:29;;;;;;;6.63;2.03;;;;;;;24.67;31.82;100637.47;10309679;28;20061;-71
2023/05/30 13:41:31;;;;;;;3.50;1.58;;;;;;;24.66;32.50;100637.69;10280081;28;20056;-69
2023/05/30 13:46:32;;;;;;;7.15;2.13;;;;;;;24.65;32.70;100636.84;10308056;28;20053;-68
2023/05/30 13:51:34;;;;;;;5.93;1.70;;;;;;;24.64;33.10;100637.06;10290067;28;20061;-69
2023/05/30 13:56:36;;;;;;;4.25;1.70;;;;;;;24.74;32.58;100633.91;10312680;28;20050;-68
2023/05/30 14:01:38;;;;;;;2.85;1.23;;;;;;;24.76;30.62;100632.66;10318823;28;20042;-69
2023/05/30 14:06:39;;;;;;;3.17;1.40;;;;;;;24.73;28.85;100622.19;10318735;28;20053;-69
2023/05/30 14:11:41;;;;;;;4.00;1.20;;;;;;;24.67;28.11;100636.66;10321549;28;20077;-69
2023/05/30 14:16:42;;;;;;;3.53;1.10;;;;;;;24.57;28.55;100628.84;10314857;28;20192;-68
2023/05/30 14:21:44;;;;;;;4.38;1.55;;;;;;;24.50;28.29;100619.81;10304721;28;20112;-68
2023/05/30 14:26:46;;;;;;;3.60;1.40;;;;;;;24.47;28.27;100617.50;10297244;28;20057;-69
2023/05/30 14:31:47;;;;;;;3.60;1.75;;;;;;;24.44;28.93;100610.63;10317241;28;20077;-70
2023/05/30 14:36:49;;;;;;;3.30;1.55;;;;;;;24.43;28.96;100616.28;10300562;28;20045;-69
2023/05/30 14:41:50;;;;;;;5.63;2.17;;;;;;;24.34;30.98;100602.84;10319232;28;20717;-69
2023/05/30 14:46:52;;;;;;;3.72;1.80;;;;;;;24.35;31.56;100609.97;10316405;28;20523;-70
2023/05/30 14:51:56;;;;;;;3.33;1.35;;;;;;;24.32;30.21;100599.50;10314600;28;20127;-69
2023/05/30 14:56:57;;;;;;;4.97;1.73;;;;;;;24.30;30.01;100606.19;10307682;28;20121;-70
2023/05/30 15:01:59;;;;;;;2.50;1.10;;;;;;;24.32;29.56;100604.94;10299781;28;20508;-70
2023/05/30 15:07:00;;;;;;;4.80;1.55;;;;;;;24.20;30.78;100597.56;10320688;28;20116;-73
2023/05/30 15:12:02;;;;;;;5.38;1.58;;;;;;;24.20;31.73;100612.03;10302200;28;20057;-73
2023/05/30 15:17:04;;;;;;;5.20;2.05;;;;;;;24.20;33.26;100601.16;10317416;28;20661;-73
2023/05/30 15:22:06;;;;;;;6.43;2.40;;;;;;;24.11;34.29;100597.78;10314950;28;20046;-71
2023/05/30 15:27:07;;;;;;;3.72;1.92;;;;;;;24.04;34.10;100606.97;10313378;28;20054;-70
2023/05/30 15:32:09;;;;;;;4.25;2.10;;;;;;;23.91;34.33;100586.81;10315489;28;20054;-70
2023/05/30 15:37:10;;;;;;;6.22;1.95;;;;;;;23.97;34.99;100606.91;10299211;28;20656;-71
2023/05/30 15:42:12;;;;;;;8.25;2.13;;;;;;;23.99;34.87;100605.69;10317276;28;20065;-68
2023/05/30 15:47:14;;;;;;;5.53;2.17;;;;;;;23.98;33.95;100609.44;10298719;28;20049;-70
2023/05/30 15:52:15;;;;;;;4.43;2.55;;;;;;;23.96;34.42;100595.22;10303538;28;20904;-70
2023/05/30 15:57:17;;;;;;;3.55;2.13;;;;;;;23.78;34.51;100598.47;10311020;28;20576;-68
2023/05/30 16:02:18;;;;;;;5.78;1.75;;;;;;;23.82;35.11;100596.16;10316374;28;20049;-69
2023/05/30 16:07:20;;;;;;;6.63;2.08;;;;;;;23.76;35.32;100594.25;10312630;28;20463;-69
2023/05/30 16:12:21;;;;;;;4.93;2.03;;;;;;;23.77;35.35;100599.50;10298610;28;21589;-70
2023/05/30 16:17:23;;;;;;;7.90;2.03;;;;;;;23.68;34.92;100599.88;10314084;28;20149;-71
2023/05/30 16:22:24;;;;;;;6.82;2.65;;;;;;;23.55;35.28;100593.31;10319388;28;20050;-70
2023/05/30 16:27:26;;;;;;;4.32;1.90;;;;;;;23.46;35.50;100580.94;10314093;28;20046;-70
2023/05/30 16:32:27;;;;;;;5.40;2.53;;;;;;;23.53;35.44;100589.97;10316034;28;20404;-69
2023/05/30 16:37:29;;;;;;;5.97;2.15;;;;;;;23.44;35.69;100591.16;10316717;28;20057;-70
2023/05/30 16:42:32;;;;;;;5.00;2.38;;;;;;;23.40;36.06;100588.00;10323443;28;20060;-70
2023/05/30 16:47:33;;;;;;;8.30;2.90;;;;;;;23.37;35.54;100576.72;10316717;28;20074;-70
2023/05/30 16:52:35;;;;;;;7.63;2.60;;;;;;;23.20;36.10;100578.91;10317056;28;20053;-73
2023/05/30 16:57:37;;;;;;;5.30;2.45;;;;;;;23.22;36.70;100585.81;10314498;28;20516;-70
2023/05/30 17:02:38;;;;;;;4.90;2.38;;;;;;;23.24;36.29;100597.31;10318305;28;20073;-71
2023/05/30 17:07:41;;;;;;;6.53;2.20;;;;;;;23.22;35.74;100595.84;10319177;28;20054;-70
2023/05/30 17:12:45;;;;;;;4.85;1.88;;;;;;;23.25;36.01;100603.59;10326194;28;20046;-70
2023/05/30 17:17:47;;;;;;;6.43;2.67;;;;;;;23.06;36.70;100589.66;10313010;28;20135;-69
2023/05/30 17:22:48;;;;;;;6.50;2.30;;;;;;;22.99;37.09;100587.91;10314612;28;20244;-70
2023/05/30 17:27:50;;;;;;;3.67;2.22;;;;;;;22.96;37.05;100589.16;10305814;28;20056;-69
2023/05/30 17:32:51;;;;;;;8.20;2.28;;;;;;;22.98;37.37;100602.53;10318787;28;20060;-69
2023/05/30 17:37:53;;;;;;;5.60;2.40;;;;;;;22.97;37.34;100598.13;10321181;28;20073;-71
2023/05/30 17:42:56;;;;;;;5.57;1.80;;;;;;;22.99;37.52;100598.78;10301412;28;20133;-71
2023/05/30 17:47:57;;;;;;;5.05;1.88;;;;;;;22.81;36.00;100597.38;10307104;28;20137;-71
2023/05/30 17:53:00;;;;;;;6.88;2.33;;;;;;;22.82;35.54;100603.63;10320553;28;20580;-70
2023/05/30 17:58:02;;;;;;;;;;;;;;;22.77;35.04;100606.94;10319297;28;20053;-68
2023/05/30 18:03:04;;;;;;;5.32;2.25;;;;;;;22.75;33.71;100609.00;10312343;28;20354;-71
2023/05/30 18:08:06;;;;;;;3.58;1.00;;;;;;;22.54;31.90;100613.41;10315214;28;20054;-71
2023/05/30 18:13:07;;;;;;;3.15;1.23;;;;;;;22.55;32.02;100609.66;10302458;28;20248;-72
2023/05/30 18:18:09;;;;;;;5.10;1.45;;;;;;;22.54;31.29;100613.41;10317387;28;20057;-70
2023/05/30 18:23:10;;;;;;;3.17;1.52;;;;;;;22.43;30.69;100622.06;10318202;28;20062;-72
2023/05/30 18:28:12;;;;;;;3.30;1.10;;;;;;;22.28;30.77;100610.38;10301475;28;20140;-69
2023/05/30 18:33:13;;;;;;;6.00;1.70;;;;;;;22.32;30.92;100627.97;10306120;28;20394;-72
2023/05/30 18:38:15;;;;;;;4.78;1.63;;;;;;;22.23;31.18;100628.09;10317623;28;20514;-71
2023/05/30 18:43:17;;;;;;;3.63;1.52;;;;;;;22.13;31.02;100638.38;10306465;28;20061;-70
2023/05/30 18:48:18;;;;;;;3.17;1.70;;;;;;;22.01;31.04;100637.19;10318784;28;20057;-70
2023/05/30 18:53:28;;;;;;;2.97;1.15;;;;;;;22.00;31.12;100635.50;10319823;28;20614;-70
2023/05/30 18:58:30;;;;;;;2.20;1.27;;;;;;;21.97;31.15;100646.72;10304247;28;20049;-70
2023/05/30 19:03:31;;;;;;;3.17;1.10;;;;;;;21.94;30.75;100647.09;10319848;28;20052;-69
2023/05/30 19:08:33;;;;;;;3.40;1.42;;;;;;;21.78;31.25;100651.69;10321445;28;20485;-70
2023/05/30 19:13:34;;;;;;;8.15;1.35;;;;;;;21.71;31.12;100656.19;10316241;28;20362;-70
2023/05/30 19:18:36;;;;;;;2.88;1.15;;;;;;;21.64;30.90;100660.66;10320385;28;20124;-69
2023/05/30 19:23:40;;;;;;;3.20;1.27;;;;;;;21.59;31.05;100674.78;10325515;28;20112;-68
2023/05/30 19:28:41;;;;;;;4.13;1.08;;;;;;;21.48;31.64;100678.75;10332080;28;20057;-68
2023/05/30 19:33:43;;;;;;;3.47;1.40;;;;;;;21.35;31.65;100673.13;10313028;28;20054;-69
2023/05/30 19:38:44;;;;;;;3.50;1.17;;;;;;;21.26;31.88;100672.34;10316462;28;20570;-68
2023/05/30 19:43:46;;;;;;;5.90;2.38;;;;;;;21.29;32.79;100684.69;10318973;28;20509;-72
2023/05/30 19:48:47;;;;;;;3.15;1.42;;;;;;;21.10;32.73;100684.16;10317050;28;20049;-73
2023/05/30 19:53:49;;;;;;;3.67;1.33;;;;;;;21.18;33.68;100689.53;10300823;28;20053;-73
2023/05/30 19:58:50;;;;;;;2.97;1.58;;;;;;;21.14;32.66;100688.19;10315258;28;20148;-72
2023/05/30 20:03:51;;;;;;;3.30;1.55;;;;;;;21.11;33.35;100693.97;10306047;28;20764;-73
2023/05/30 20:08:54;;;;;;;4.97;1.65;;;;;;;21.02;33.33;100703.19;10320339;28;20102;-72
2023/05/30 20:13:56;;;;;;;4.93;2.10;;;;;;;20.97;33.20;100708.28;10320031;28;20045;-72
2023/05/30 20:18:57;;;;;;;6.68;2.35;;;;;;;20.89;33.50;100716.47;10316427;28;20057;-74
2023/05/30 20:23:58;;;;;;;3.45;1.65;;;;;;;20.71;33.69;100714.88;10319185;28;20428;-75
2023/05/30 20:29:00;;;;;;;4.60;1.85;;;;;;;20.71;34.28;100714.06;10299357;28;20069;-72
2023/05/30 20:34:02;;;;;;;3.85;1.77;;;;;;;20.69;34.07;100726.91;10320526;28;20054;-73
2023/05/30 20:39:03;;;;;;;7.28;2.05;;;;;;;20.63;33.82;100733.84;10331869;28;20054;-71
2023/05/30 20:44:05;;;;;;;5.53;1.90;;;;;;;20.53;34.18;100722.41;10311311;28;20100;-73
2023/05/30 20:49:06;;;;;;;5.68;1.95;;;;;;;20.48;34.63;100721.06;10328590;28;20053;-71
2023/05/30 20:54:08;;;;;;;3.95;1.77;;;;;;;20.22;34.92;100721.38;10330006;28;20580;-71
2023/05/30 20:59:10;;;;;;;4.40;1.70;;;;;;;20.33;34.98;100732.81;10329822;28;20058;-71
2023/05/30 21:04:12;;;;;;;6.87;1.77;;;;;;;20.25;35.41;100741.78;10335357;28;20049;-71
2023/05/30 21:09:14;;;;;;;5.03;1.85;;;;;;;20.17;35.70;100749.94;10333424;28;20046;-72
2023/05/30 21:14:15;;;;;;;4.75;2.45;;;;;;;19.98;36.21;100741.19;10307484;28;20768;-71
2023/05/30 21:19:17;;;;;;;2.90;1.70;;;;;;;20.04;36.48;100747.78;10321501;28;20152;-71
2023/05/30 21:24:19;;;;;;;5.60;1.98;;;;;;;19.98;36.57;100735.78;10316035;28;20097;-71
2023/05/30 21:29:20;;;;;;;8.00;2.55;;;;;;;19.87;36.98;100733.47;10333660;28;20062;-69
2023/05/30 21:34:22;;;;;;;4.45;2.13;;;;;;;19.71;37.46;100735.19;10335586;28;20131;-69
2023/05/30 21:39:23;;;;;;;6.85;2.53;;;;;;;19.80;37.43;100743.28;10327646;28;20056;-70
2023/05/30 21:44:25;;;;;;;4.47;2.13;;;;;;;19.74;37.45;100742.06;10318062;28;20054;-69
2023/05/30 21:49:26;;;;;;;3.28;2.17;;;;;;;19.67;37.96;100743.78;10312348;28;20108;-70
2023/05/30 21:54:36;;;;;;;2.97;1.60;;;;;;;19.69;38.01;100758.78;10326728;28;20059;-70
2023/05/30 21:59:37;;;;;;;5.13;2.15;;;;;;;19.63;38.73;100758.66;10343820;28;20061;-69
2023/05/30 22:04:39;;;;;;;5.13;2.30;;;;;;;19.57;38.68;100743.97;10346000;28;20401;-71
2023/05/30 22:09:41;;;;;;;5.57;2.17;;;;;;;19.52;38.72;100746.34;10336781;28;20052;-70
2023/05/30 22:14:43;;;;;;;5.45;1.90;;;;;;;19.47;38.85;100754.97;10334810;28;20452;-69
2023/05/30 22:19:44;;;;;;;4.70;2.10;;;;;;;19.43;39.22;100770.63;10331489;28;20077;-67
2023/05/30 22:24:46;;;;;;;4.40;2.40;;;;;;;19.34;39.32;100763.56;10328912;28;20049;-70
2023/05/30 22:29:47;;;;;;;6.00;2.10;;;;;;;19.28;40.24;100766.09;10327406;28;20068;-69
2023/05/30 22:34:48;;;;;;;6.40;2.05;;;;;;;19.20;40.20;100764.22;10311037;28;20100;-69
2023/05/30 22:39:50;;;;;;;6.28;2.33;;;;;;;19.10;40.75;100766.25;10325869;28;20054;-66
2023/05/30 22:44:51;;;;;;;4.88;2.22;;;;;;;18.94;41.02;100765.19;10321947;28;20054;-67
2023/05/30 22:49:53;;;;;;;5.85;2.22;;;;;;;18.80;41.73;100768.53;10313284;28;20574;-69
2023/05/30 22:54:54;;;;;;;3.92;2.17;;;;;;;18.82;42.05;100761.09;10314815;28;20128;-68
2023/05/30 22:59:56;;;;;;;7.28;2.47;;;;;;;18.63;42.15;100765.78;10310110;28;20262;-69
2023/05/30 23:04:57;;;;;;;5.97;2.13;;;;;;;18.61;43.12;100762.38;10307468;28;20093;-69
2023/05/30 23:09:58;;;;;;;4.35;2.50;;;;;;;18.68;43.19;100762.59;10313038;28;20552;-69